Time,TemperatureF,DewpointF,PressureIn,WindDirection,WindDirectionDegrees,WindSpeedMPH,WindSpeedGustMPH,Humidity,HourlyPrecipIn,Conditions,Clouds,dailyrainin,SoftwareType,DateUTC
2013-03-09 00:03:00,28.9,16.2,30.39,WNW,293,2.3,3.1,55,0.00,,,0.00,WSDL version 420,2013-03-09 05:03:00,
2013-03-09 00:08:00,28.9,15.9,30.39,WNW,293,1.5,3.1,54,0.00,,,0.00,WSDL version 420,2013-03-09 05:08:00,
2013-03-09 00:13:00,28.8,16.0,30.39,West,281,2.3,3.1,55,0.00,,,0.00,WSDL version 420,2013-03-09 05:13:00,
2013-03-09 00:18:00,28.8,16.2,30.38,WNW,293,1.0,2.9,55,0.00,,,0.00,WSDL version 420,2013-03-09 05:18:00,
2013-03-09 00:23:00,28.8,16.2,30.38,WNW,283,1.7,2.5,55,0.00,,,0.00,WSDL version 420,2013-03-09 05:23:00,
2013-03-09 00:28:00,28.8,16.1,30.38,WNW,293,2.8,3.1,54,0.00,,,0.00,WSDL version 420,2013-03-09 05:28:00,
2013-03-09 00:33:00,28.9,16.2,30.38,WNW,285,2.5,3.1,54,0.00,,,0.00,WSDL version 420,2013-03-09 05:33:00,
2013-03-09 00:38:00,28.9,16.3,30.38,WNW,293,2.4,3.1,55,0.00,,,0.00,WSDL version 420,2013-03-09 05:38:00,
2013-03-09 00:43:00,28.9,16.0,30.38,West,276,1.5,3.1,54,0.00,,,0.00,WSDL version 420,2013-03-09 05:43:00,
2013-03-09 00:48:00,28.9,16.0,30.38,WNW,293,2.3,3.1,54,0.00,,,0.00,WSDL version 420,2013-03-09 05:48:00,
2013-03-09 00:53:00,28.9,16.3,30.38,West,270,1.9,2.9,55,0.00,,,0.00,WSDL version 420,2013-03-09 05:53:00,
2013-03-09 00:58:00,28.8,16.2,30.38,West,280,1.6,2.9,55,0.00,,,0.00,WSDL version 420,2013-03-09 05:58:00,
2013-03-09 01:03:00,28.6,16.1,30.38,WNW,293,1.1,2.9,55,0.00,,,0.00,WSDL version 420,2013-03-09 06:03:00,
2013-03-09 01:08:00,28.6,16.0,30.37,NW,305,1.4,2.5,55,0.00,,,0.00,WSDL version 420,2013-03-09 06:08:00,
2013-03-09 01:13:00,28.7,16.2,30.37,West,270,0.0,2.5,55,0.00,,,0.00,WSDL version 420,2013-03-09 06:13:00,
2013-03-09 01:18:00,28.6,16.0,30.38,West,270,0.0,0.0,55,0.00,,,0.00,WSDL version 420,2013-03-09 06:18:00,
2013-03-09 01:23:00,28.3,15.8,30.38,West,270,0.0,0.0,55,0.00,,,0.00,WSDL version 420,2013-03-09 06:23:00,
2013-03-09 01:28:00,28.0,15.8,30.38,West,270,0.0,0.0,56,0.00,,,0.00,WSDL version 420,2013-03-09 06:28:00,
2013-03-09 01:33:00,27.9,15.7,30.38,West,270,0.0,0.0,56,0.00,,,0.00,WSDL version 420,2013-03-09 06:33:00,
2013-03-09 01:38:00,27.9,16.1,30.38,West,270,0.0,0.0,57,0.00,,,0.00,WSDL version 420,2013-03-09 06:38:00,
2013-03-09 01:43:00,27.7,15.8,30.38,WNW,293,0.0,0.0,56,0.00,,,0.00,WSDL version 420,2013-03-09 06:43:00,
2013-03-09 01:48:00,27.5,15.4,30.38,WNW,293,0.0,0.0,56,0.00,,,0.00,WSDL version 420,2013-03-09 06:48:00,
2013-03-09 01:53:00,27.6,15.8,30.37,West,273,0.0,0.0,57,0.00,,,0.00,WSDL version 420,2013-03-09 06:53:00,
2013-03-09 01:58:00,27.6,15.8,30.37,WNW,293,0.0,0.0,57,0.00,,,0.00,WSDL version 420,2013-03-09 06:58:00,
2013-03-09 02:03:00,27.4,15.6,30.37,West,270,0.0,0.0,56,0.00,,,0.00,WSDL version 420,2013-03-09 07:03:00,
2013-03-09 02:08:00,27.3,15.2,30.37,WNW,293,0.0,0.0,56,0.00,,,0.00,WSDL version 420,2013-03-09 07:08:00,
2013-03-09 02:13:00,27.3,15.2,30.37,WNW,293,0.0,0.0,56,0.00,,,0.00,WSDL version 420,2013-03-09 07:13:00,
2013-03-09 02:18:00,27.2,15.1,30.37,WNW,293,0.0,0.0,56,0.00,,,0.00,WSDL version 420,2013-03-09 07:18:00,
2013-03-09 02:23:00,27.1,15.0,30.37,WNW,293,0.0,0.0,56,0.00,,,0.00,WSDL version 420,2013-03-09 07:23:00,
2013-03-09 02:28:00,27.1,15.0,30.37,WNW,293,0.0,0.0,56,0.00,,,0.00,WSDL version 420,2013-03-09 07:28:00,
2013-03-09 02:33:00,27.3,15.0,30.37,West,270,0.0,0.0,56,0.00,,,0.00,WSDL version 420,2013-03-09 07:33:00,
2013-03-09 02:38:00,27.3,15.2,30.34,West,273,0.0,0.0,56,0.00,,,0.00,WSDL version 420,2013-03-09 07:38:00,
2013-03-09 02:43:00,27.2,14.9,30.34,WNW,285,0.0,1.3,55,0.00,,,0.00,WSDL version 420,2013-03-09 07:43:00,
2013-03-09 02:48:00,27.3,14.8,30.34,West,270,0.0,1.3,55,0.00,,,0.00,WSDL version 420,2013-03-09 07:48:00,
2013-03-09 02:53:00,27.2,14.7,30.35,West,270,0.0,0.0,55,0.00,,,0.00,WSDL version 420,2013-03-09 07:53:00,
2013-03-09 02:58:00,27.1,14.3,30.35,WNW,290,0.0,0.0,54,0.00,,,0.00,WSDL version 420,2013-03-09 07:58:00,
2013-03-09 03:03:00,27.3,14.5,30.34,West,270,0.0,0.0,55,0.00,,,0.00,WSDL version 420,2013-03-09 08:03:00,
2013-03-09 03:08:00,27.2,14.4,30.35,West,270,0.0,0.0,54,0.00,,,0.00,WSDL version 420,2013-03-09 08:08:00,
2013-03-09 03:13:00,27.1,14.3,30.35,West,270,0.0,0.0,54,0.00,,,0.00,WSDL version 420,2013-03-09 08:13:00,
2013-03-09 03:18:00,27.1,14.3,30.35,West,270,0.4,1.6,54,0.00,,,0.00,WSDL version 420,2013-03-09 08:18:00,
2013-03-09 03:23:00,27.1,14.3,30.35,West,270,0.0,1.6,54,0.00,,,0.00,WSDL version 420,2013-03-09 08:23:00,
2013-03-09 03:28:00,27.1,14.0,30.35,WNW,293,0.0,1.1,53,0.00,,,0.00,WSDL version 420,2013-03-09 08:28:00,
2013-03-09 03:33:00,27.2,14.0,30.35,West,270,0.3,1.3,53,0.00,,,0.00,WSDL version 420,2013-03-09 08:33:00,
2013-03-09 03:38:00,27.1,13.9,30.35,West,270,0.0,1.3,53,0.00,,,0.00,WSDL version 420,2013-03-09 08:38:00,
2013-03-09 03:43:00,27.2,14.0,30.35,West,270,0.0,0.0,53,0.00,,,0.00,WSDL version 420,2013-03-09 08:43:00,
2013-03-09 03:48:00,27.2,13.9,30.35,West,270,0.0,0.0,53,0.00,,,0.00,WSDL version 420,2013-03-09 08:48:00,
2013-03-09 03:53:00,27.1,13.8,30.35,West,275,0.0,0.0,52,0.00,,,0.00,WSDL version 420,2013-03-09 08:53:00,
2013-03-09 03:58:00,27.3,14.0,30.35,West,270,0.0,0.0,53,0.00,,,0.00,WSDL version 420,2013-03-09 08:58:00,
2013-03-09 04:03:00,27.1,13.6,30.35,West,270,0.0,0.0,52,0.00,,,0.00,WSDL version 420,2013-03-09 09:03:00,
2013-03-09 04:08:00,27.2,13.8,30.35,West,270,0.0,0.0,53,0.00,,,0.00,WSDL version 420,2013-03-09 09:08:00,
2013-03-09 04:13:00,27.1,13.5,30.35,West,270,0.0,0.0,52,0.00,,,0.00,WSDL version 420,2013-03-09 09:13:00,
2013-03-09 04:18:00,27.1,13.5,30.35,West,270,0.0,0.0,52,0.00,,,0.00,WSDL version 420,2013-03-09 09:18:00,
2013-03-09 04:23:00,27.1,13.5,30.35,WNW,283,0.0,0.0,52,0.00,,,0.00,WSDL version 420,2013-03-09 09:23:00,
2013-03-09 04:28:00,27.1,13.5,30.35,WNW,293,0.0,0.0,52,0.00,,,0.00,WSDL version 420,2013-03-09 09:28:00,
2013-03-09 04:33:00,27.1,13.5,30.35,West,270,1.4,2.0,52,0.00,,,0.00,WSDL version 420,2013-03-09 09:33:00,
2013-03-09 04:38:00,27.1,13.7,30.35,West,270,0.0,2.0,52,0.00,,,0.00,WSDL version 420,2013-03-09 09:38:00,
2013-03-09 04:43:00,27.0,13.4,30.35,West,270,0.0,0.0,52,0.00,,,0.00,WSDL version 420,2013-03-09 09:43:00,
2013-03-09 04:48:00,27.0,13.4,30.35,West,270,0.0,0.0,52,0.00,,,0.00,WSDL version 420,2013-03-09 09:48:00,
2013-03-09 04:53:00,27.0,13.4,30.35,West,270,0.0,0.0,52,0.00,,,0.00,WSDL version 420,2013-03-09 09:53:00,
2013-03-09 04:58:00,27.0,13.4,30.35,West,270,0.0,0.0,52,0.00,,,0.00,WSDL version 420,2013-03-09 09:58:00,
2013-03-09 05:03:00,26.9,13.3,30.35,West,270,0.0,0.0,52,0.00,,,0.00,WSDL version 420,2013-03-09 10:03:00,
2013-03-09 05:08:00,26.8,13.2,30.36,West,270,0.0,0.0,52,0.00,,,0.00,WSDL version 420,2013-03-09 10:08:00,
2013-03-09 05:13:00,26.8,13.2,30.36,West,270,0.0,0.0,52,0.00,,,0.00,WSDL version 420,2013-03-09 10:13:00,
2013-03-09 05:18:00,26.7,13.1,30.36,West,270,0.0,0.0,52,0.00,,,0.00,WSDL version 420,2013-03-09 10:18:00,
2013-03-09 05:23:00,26.7,13.1,30.36,WNW,293,0.0,0.0,52,0.00,,,0.00,WSDL version 420,2013-03-09 10:23:00,
2013-03-09 05:28:00,26.7,13.1,30.36,WNW,293,0.0,0.0,52,0.00,,,0.00,WSDL version 420,2013-03-09 10:28:00,
2013-03-09 05:33:00,26.6,13.0,30.36,WNW,293,0.0,0.0,52,0.00,,,0.00,WSDL version 420,2013-03-09 10:33:00,
2013-03-09 05:38:00,26.6,13.2,30.36,WNW,293,0.0,0.0,52,0.00,,,0.00,WSDL version 420,2013-03-09 10:38:00,
2013-03-09 05:43:00,26.6,13.3,30.36,WNW,293,0.0,0.0,53,0.00,,,0.00,WSDL version 420,2013-03-09 10:43:00,
2013-03-09 05:48:00,26.6,13.4,30.36,WNW,293,0.0,1.3,53,0.00,,,0.00,WSDL version 420,2013-03-09 10:48:00,
2013-03-09 05:53:00,26.6,13.4,30.36,WNW,293,0.0,1.3,53,0.00,,,0.00,WSDL version 420,2013-03-09 10:53:00,
2013-03-09 05:58:00,26.6,13.4,30.36,WNW,293,0.0,0.0,53,0.00,,,0.00,WSDL version 420,2013-03-09 10:58:00,
2013-03-09 06:03:00,26.6,13.1,30.36,WNW,293,0.0,0.0,52,0.00,,,0.00,WSDL version 420,2013-03-09 11:03:00,
2013-03-09 06:08:00,26.6,13.0,30.36,WNW,293,0.0,0.0,52,0.00,,,0.00,WSDL version 420,2013-03-09 11:08:00,
2013-03-09 06:13:00,26.8,13.2,30.36,WNW,293,0.0,0.0,52,0.00,,,0.00,WSDL version 420,2013-03-09 11:13:00,
2013-03-09 06:18:00,26.8,13.2,30.37,WNW,293,0.0,0.0,52,0.00,,,0.00,WSDL version 420,2013-03-09 11:18:00,
2013-03-09 06:23:00,26.8,13.2,30.37,WNW,293,0.0,0.0,52,0.00,,,0.00,WSDL version 420,2013-03-09 11:23:00,
2013-03-09 06:28:00,26.9,13.3,30.37,SE,138,0.0,0.0,52,0.00,,,0.00,WSDL version 420,2013-03-09 11:28:00,
2013-03-09 06:33:00,27.0,13.4,30.37,ESE,113,0.0,0.0,52,0.00,,,0.00,WSDL version 420,2013-03-09 11:33:00,
2013-03-09 06:38:00,27.0,13.4,30.37,WNW,293,0.0,0.0,52,0.00,,,0.00,WSDL version 420,2013-03-09 11:38:00,
2013-03-09 06:43:00,26.8,13.2,30.37,WNW,293,0.0,0.0,52,0.00,,,0.00,WSDL version 420,2013-03-09 11:43:00,
2013-03-09 06:48:00,26.8,13.2,30.37,WNW,293,0.0,0.0,52,0.00,,,0.00,WSDL version 420,2013-03-09 11:48:00,
2013-03-09 06:53:00,26.6,13.2,30.40,West,270,0.0,0.0,53,0.00,,,0.00,WSDL version 420,2013-03-09 11:53:00,
2013-03-09 06:58:00,26.5,13.3,30.40,West,270,0.0,0.9,53,0.00,,,0.00,WSDL version 420,2013-03-09 11:58:00,
2013-03-09 07:03:00,26.4,13.2,30.40,West,270,0.0,0.9,53,0.00,,,0.00,WSDL version 420,2013-03-09 12:03:00,
2013-03-09 07:08:00,26.4,13.2,30.41,West,270,0.0,0.0,53,0.00,,,0.00,WSDL version 420,2013-03-09 12:08:00,
2013-03-09 07:13:00,26.6,13.4,30.41,West,270,0.0,1.3,53,0.00,,,0.00,WSDL version 420,2013-03-09 12:13:00,
2013-03-09 07:18:00,26.8,13.6,30.41,WNW,283,0.0,1.3,53,0.00,,,0.00,WSDL version 420,2013-03-09 12:18:00,
2013-03-09 07:23:00,26.9,13.6,30.41,WNW,293,1.4,2.0,53,0.00,,,0.00,WSDL version 420,2013-03-09 12:23:00,
2013-03-09 07:28:00,27.1,14.0,30.41,West,281,0.0,2.0,54,0.00,,,0.00,WSDL version 420,2013-03-09 12:28:00,
2013-03-09 07:33:00,27.3,14.5,30.41,West,278,1.4,2.0,54,0.00,,,0.00,WSDL version 420,2013-03-09 12:33:00,
2013-03-09 07:38:00,27.6,14.7,30.41,West,264,0.0,2.0,54,0.00,,,0.00,WSDL version 420,2013-03-09 12:38:00,
2013-03-09 07:43:00,27.9,15.0,30.41,West,270,0.0,1.3,54,0.00,,,0.00,WSDL version 420,2013-03-09 12:43:00,
2013-03-09 07:48:00,28.1,15.2,30.41,West,270,0.0,0.0,54,0.00,,,0.00,WSDL version 420,2013-03-09 12:48:00,
2013-03-09 07:53:00,28.4,15.4,30.41,West,270,0.0,0.0,53,0.00,,,0.00,WSDL version 420,2013-03-09 12:53:00,
2013-03-09 07:58:00,29.4,16.1,30.41,West,270,0.0,0.0,54,0.00,,,0.00,WSDL version 420,2013-03-09 12:58:00,
2013-03-09 08:03:00,31.5,17.9,30.40,West,270,0.0,0.0,54,0.00,,,0.00,WSDL version 420,2013-03-09 13:03:00,
2013-03-09 08:08:00,33.0,18.0,30.40,West,270,0.0,0.0,53,0.00,,,0.00,WSDL version 420,2013-03-09 13:08:00,
2013-03-09 08:13:00,34.5,18.6,30.40,East,98,0.0,0.9,52,0.00,,,0.00,WSDL version 420,2013-03-09 13:13:00,
2013-03-09 08:18:00,35.6,19.4,30.39,ESE,113,0.0,0.9,51,0.00,,,0.00,WSDL version 420,2013-03-09 13:18:00,
2013-03-09 08:23:00,36.8,20.3,30.42,SE,129,0.0,0.9,51,0.00,,,0.00,WSDL version 420,2013-03-09 13:23:00,
2013-03-09 08:28:00,37.8,20.3,30.42,East,98,0.6,2.0,48,0.00,,,0.00,WSDL version 420,2013-03-09 13:28:00,
2013-03-09 08:33:00,38.3,20.0,30.42,ENE,63,0.4,2.0,47,0.00,,,0.00,WSDL version 420,2013-03-09 13:33:00,
2013-03-09 08:38:00,38.4,19.0,30.42,ESE,107,0.7,2.2,44,0.00,,,0.00,WSDL version 420,2013-03-09 13:38:00,
2013-03-09 08:43:00,38.6,18.2,30.42,ESE,118,0.0,2.2,44,0.00,,,0.00,WSDL version 420,2013-03-09 13:43:00,
2013-03-09 08:48:00,38.8,18.3,30.42,East,98,0.2,2.0,43,0.00,,,0.00,WSDL version 420,2013-03-09 13:48:00,
2013-03-09 08:53:00,39.3,18.5,30.42,ESE,103,0.3,2.0,43,0.00,,,0.00,WSDL version 420,2013-03-09 13:53:00,
2013-03-09 08:58:00,40.4,19.0,30.42,East,84,1.4,2.9,41,0.00,,,0.00,WSDL version 420,2013-03-09 13:58:00,
2013-03-09 09:03:00,42.3,19.3,30.41,East,82,2.0,3.4,39,0.00,,,0.00,WSDL version 420,2013-03-09 14:03:00,
2013-03-09 09:08:00,43.8,19.4,30.41,East,87,2.0,3.6,37,0.00,,,0.00,WSDL version 420,2013-03-09 14:08:00,
2013-03-09 09:13:00,44.4,19.5,30.41,East,90,1.7,3.6,35,0.00,,,0.00,WSDL version 420,2013-03-09 14:13:00,
2013-03-09 09:18:00,44.9,18.5,30.41,ESE,108,1.9,3.6,33,0.00,,,0.00,WSDL version 420,2013-03-09 14:18:00,
2013-03-09 09:23:00,45.7,17.4,30.41,ESE,107,3.1,4.0,32,0.00,,,0.00,WSDL version 420,2013-03-09 14:23:00,
2013-03-09 09:28:00,46.7,18.0,30.41,SE,128,1.6,4.0,32,0.00,,,0.00,WSDL version 420,2013-03-09 14:28:00,
2013-03-09 09:33:00,47.8,18.0,30.41,East,101,3.1,3.8,29,0.00,,,0.00,WSDL version 420,2013-03-09 14:33:00,
2013-03-09 09:38:00,48.6,17.2,30.40,East,95,3.3,4.5,28,0.00,,,0.00,WSDL version 420,2013-03-09 14:38:00,
2013-03-09 09:43:00,49.0,17.3,30.40,East,93,3.7,4.5,28,0.00,,,0.00,WSDL version 420,2013-03-09 14:43:00,
2013-03-09 09:48:00,49.2,17.5,30.40,East,87,2.6,4.3,28,0.00,,,0.00,WSDL version 420,2013-03-09 14:48:00,
2013-03-09 09:53:00,49.4,17.6,30.37,East,87,2.6,4.3,28,0.00,,,0.00,WSDL version 420,2013-03-09 14:53:00,
2013-03-09 09:58:00,49.1,16.8,30.37,East,84,3.6,5.4,27,0.00,,,0.00,WSDL version 420,2013-03-09 14:58:00,
2013-03-09 10:03:00,48.9,16.4,30.37,ENE,78,3.8,5.4,27,0.00,,,0.00,WSDL version 420,2013-03-09 15:03:00,
2013-03-09 10:08:00,48.7,16.2,30.37,East,87,3.2,5.4,27,0.00,,,0.00,WSDL version 420,2013-03-09 15:08:00,
2013-03-09 10:13:00,48.8,16.3,30.38,East,90,2.9,5.4,27,0.00,,,0.00,WSDL version 420,2013-03-09 15:13:00,
2013-03-09 10:18:00,49.3,17.1,30.38,ESE,107,1.5,5.4,28,0.00,,,0.00,WSDL version 420,2013-03-09 15:18:00,
2013-03-09 10:23:00,50.0,17.5,30.41,East,82,2.6,4.3,27,0.00,,,0.00,WSDL version 420,2013-03-09 15:23:00,
2013-03-09 10:28:00,50.2,17.5,30.41,SE,128,2.2,4.7,27,0.00,,,0.00,WSDL version 420,2013-03-09 15:28:00,
2013-03-09 10:33:00,50.7,17.9,30.41,ESE,104,3.6,4.9,27,0.00,,,0.00,WSDL version 420,2013-03-09 15:33:00,
2013-03-09 10:38:00,51.0,18.2,30.41,East,98,2.8,4.9,27,0.00,,,0.00,WSDL version 420,2013-03-09 15:38:00,
2013-03-09 10:43:00,51.3,18.5,30.41,SSE,152,3.2,5.6,27,0.00,,,0.00,WSDL version 420,2013-03-09 15:43:00,
2013-03-09 10:48:00,51.7,18.5,30.41,ESE,107,2.9,5.6,27,0.00,,,0.00,WSDL version 420,2013-03-09 15:48:00,
2013-03-09 10:53:00,52.4,19.4,30.41,SE,135,2.8,5.6,27,0.00,,,0.00,WSDL version 420,2013-03-09 15:53:00,
2013-03-09 10:58:00,53.3,20.0,30.40,ESE,121,1.1,5.6,26,0.00,,,0.00,WSDL version 420,2013-03-09 15:58:00,
2013-03-09 11:03:00,53.9,19.8,30.40,SE,140,3.5,4.7,26,0.00,,,0.00,WSDL version 420,2013-03-09 16:03:00,
2013-03-09 11:08:00,54.1,20.0,30.40,SE,138,3.8,5.4,26,0.00,,,0.00,WSDL version 420,2013-03-09 16:08:00,
2013-03-09 11:13:00,54.2,20.1,30.40,ESE,120,3.4,5.4,26,0.00,,,0.00,WSDL version 420,2013-03-09 16:13:00,
2013-03-09 11:18:00,54.5,20.3,30.40,ESE,115,3.6,4.7,26,0.00,,,0.00,WSDL version 420,2013-03-09 16:18:00,
2013-03-09 11:23:00,54.4,20.3,30.37,SSE,158,2.7,4.9,26,0.00,,,0.00,WSDL version 420,2013-03-09 16:23:00,
2013-03-09 11:28:00,55.0,20.8,30.37,SE,135,4.4,6.5,26,0.00,,,0.00,WSDL version 420,2013-03-09 16:28:00,
2013-03-09 11:33:00,55.5,20.4,30.37,East,96,1.5,6.5,25,0.00,,,0.00,WSDL version 420,2013-03-09 16:33:00,
2013-03-09 11:38:00,55.4,20.3,30.37,SE,127,2.0,4.5,25,0.00,,,0.00,WSDL version 420,2013-03-09 16:38:00,
2013-03-09 11:43:00,55.9,20.6,30.37,East,87,3.4,4.9,25,0.00,,,0.00,WSDL version 420,2013-03-09 16:43:00,
2013-03-09 11:48:00,55.7,20.4,30.37,ESE,113,2.7,6.0,25,0.00,,,0.00,WSDL version 420,2013-03-09 16:48:00,
2013-03-09 11:53:00,56.1,20.7,30.37,SSE,163,3.5,6.3,25,0.00,,,0.00,WSDL version 420,2013-03-09 16:53:00,
2013-03-09 11:58:00,55.9,20.6,30.37,SE,140,3.0,6.3,25,0.00,,,0.00,WSDL version 420,2013-03-09 16:58:00,
2013-03-09 12:03:00,56.5,21.1,30.37,ESE,107,2.9,5.6,25,0.00,,,0.00,WSDL version 420,2013-03-09 17:03:00,
2013-03-09 12:08:00,56.4,21.0,30.40,East,84,4.0,6.5,25,0.00,,,0.00,WSDL version 420,2013-03-09 17:08:00,
2013-03-09 12:13:00,56.8,21.4,30.40,ESE,113,3.9,6.5,25,0.00,,,0.00,WSDL version 420,2013-03-09 17:13:00,
2013-03-09 12:18:00,57.3,21.6,30.40,ESE,113,3.1,6.0,25,0.00,,,0.00,WSDL version 420,2013-03-09 17:18:00,
2013-03-09 12:23:00,57.8,22.1,30.36,ESE,113,3.5,6.3,25,0.00,,,0.00,WSDL version 420,2013-03-09 17:23:00,
2013-03-09 12:28:00,57.7,21.2,30.36,ESE,113,3.1,6.3,24,0.00,,,0.00,WSDL version 420,2013-03-09 17:28:00,
2013-03-09 12:33:00,57.7,21.4,30.36,SSE,152,2.3,6.3,25,0.00,,,0.00,WSDL version 420,2013-03-09 17:33:00,
2013-03-09 12:38:00,58.1,21.7,30.36,East,88,3.7,6.3,24,0.00,,,0.00,WSDL version 420,2013-03-09 17:38:00,
2013-03-09 12:43:00,58.1,21.5,30.36,East,87,3.0,6.5,24,0.00,,,0.00,WSDL version 420,2013-03-09 17:43:00,
2013-03-09 12:48:00,58.3,21.7,30.36,ESE,105,2.7,6.5,24,0.00,,,0.00,WSDL version 420,2013-03-09 17:48:00,
2013-03-09 12:53:00,58.7,21.7,30.36,East,82,4.2,6.5,23,0.00,,,0.00,WSDL version 420,2013-03-09 17:53:00,
2013-03-09 12:58:00,58.6,22.0,30.36,SE,145,3.3,6.0,24,0.00,,,0.00,WSDL version 420,2013-03-09 17:58:00,
2013-03-09 13:03:00,59.0,22.3,30.36,ESE,115,4.4,6.5,24,0.00,,,0.00,WSDL version 420,2013-03-09 18:03:00,
2013-03-09 13:08:00,59.2,22.4,30.36,East,100,2.8,6.5,24,0.00,,,0.00,WSDL version 420,2013-03-09 18:08:00,
2013-03-09 13:13:00,59.7,22.8,30.36,East,90,3.3,6.0,24,0.00,,,0.00,WSDL version 420,2013-03-09 18:13:00,
2013-03-09 13:18:00,60.0,22.7,30.36,SE,125,3.0,6.3,24,0.00,,,0.00,WSDL version 420,2013-03-09 18:18:00,
2013-03-09 13:23:00,60.6,21.5,30.36,East,95,3.5,6.3,22,0.00,,,0.00,WSDL version 420,2013-03-09 18:23:00,
2013-03-09 13:28:00,60.5,21.8,30.36,East,93,3.6,8.7,22,0.00,,,0.00,WSDL version 420,2013-03-09 18:28:00,
2013-03-09 13:33:00,60.7,21.7,30.36,East,90,3.4,8.7,21,0.00,,,0.00,WSDL version 420,2013-03-09 18:33:00,
2013-03-09 13:38:00,60.8,20.7,30.33,ESE,118,3.2,7.6,21,0.00,,,0.00,WSDL version 420,2013-03-09 18:38:00,
2013-03-09 13:43:00,61.2,21.0,30.33,East,80,3.7,7.4,21,0.00,,,0.00,WSDL version 420,2013-03-09 18:43:00,
2013-03-09 13:48:00,60.7,21.3,30.33,SE,135,2.7,7.4,22,0.00,,,0.00,WSDL version 420,2013-03-09 18:48:00,
2013-03-09 13:53:00,60.9,21.1,30.36,East,85,4.6,6.3,21,0.00,,,0.00,WSDL version 420,2013-03-09 18:53:00,
2013-03-09 13:58:00,60.7,21.1,30.36,East,88,4.7,6.5,22,0.00,,,0.00,WSDL version 420,2013-03-09 18:58:00,
2013-03-09 14:03:00,60.4,21.4,30.36,East,80,4.0,6.5,22,0.00,,,0.00,WSDL version 420,2013-03-09 19:03:00,
2013-03-09 14:08:00,61.0,20.8,30.33,East,80,3.6,6.3,21,0.00,,,0.00,WSDL version 420,2013-03-09 19:08:00,
2013-03-09 14:13:00,60.5,21.1,30.33,ESE,122,3.9,8.9,22,0.00,,,0.00,WSDL version 420,2013-03-09 19:13:00,
2013-03-09 14:18:00,60.8,21.0,30.33,ENE,70,4.5,8.9,22,0.00,,,0.00,WSDL version 420,2013-03-09 19:18:00,
2013-03-09 14:23:00,60.3,21.3,30.33,SE,129,3.9,7.4,22,0.00,,,0.00,WSDL version 420,2013-03-09 19:23:00,
2013-03-09 14:28:00,60.6,21.2,30.33,ENE,73,3.4,7.4,21,0.00,,,0.00,WSDL version 420,2013-03-09 19:28:00,
2013-03-09 14:33:00,61.0,20.8,30.33,East,93,3.1,6.5,21,0.00,,,0.00,WSDL version 420,2013-03-09 19:33:00,
2013-03-09 14:38:00,60.6,21.1,30.33,East,93,2.9,6.5,22,0.00,,,0.00,WSDL version 420,2013-03-09 19:38:00,
2013-03-09 14:43:00,60.4,21.4,30.33,SSE,155,2.7,6.5,22,0.00,,,0.00,WSDL version 420,2013-03-09 19:43:00,
2013-03-09 14:48:00,60.1,21.2,30.33,ENE,68,5.3,8.7,22,0.00,,,0.00,WSDL version 420,2013-03-09 19:48:00,
2013-03-09 14:53:00,59.3,20.5,30.33,ESE,105,3.4,8.7,22,0.00,,,0.00,WSDL version 420,2013-03-09 19:53:00,
2013-03-09 14:58:00,59.3,20.5,30.33,South,174,3.5,6.3,22,0.00,,,0.00,WSDL version 420,2013-03-09 19:58:00,
2013-03-09 15:03:00,59.1,20.3,30.33,ENE,76,3.8,6.3,22,0.00,,,0.00,WSDL version 420,2013-03-09 20:03:00,
2013-03-09 15:08:00,58.8,20.1,30.33,ENE,68,3.0,7.8,22,0.00,,,0.00,WSDL version 420,2013-03-09 20:08:00,
2013-03-09 15:13:00,58.5,19.8,30.33,ESE,104,3.0,7.8,22,0.00,,,0.00,WSDL version 420,2013-03-09 20:13:00,
2013-03-09 15:18:00,58.5,20.5,30.33,SE,143,2.7,6.3,24,0.00,,,0.00,WSDL version 420,2013-03-09 20:18:00,
2013-03-09 15:23:00,58.5,19.8,30.33,SE,135,3.6,6.0,22,0.00,,,0.00,WSDL version 420,2013-03-09 20:23:00,
2013-03-09 15:28:00,58.1,19.5,30.33,ESE,108,3.3,6.0,22,0.00,,,0.00,WSDL version 420,2013-03-09 20:28:00,
2013-03-09 15:33:00,57.9,19.3,30.33,ENE,68,3.0,5.8,22,0.00,,,0.00,WSDL version 420,2013-03-09 20:33:00,
2013-03-09 15:38:00,57.7,19.2,30.33,East,96,4.1,6.5,22,0.00,,,0.00,WSDL version 420,2013-03-09 20:38:00,
2013-03-09 15:43:00,57.5,18.9,30.33,SE,141,4.8,8.5,22,0.00,,,0.00,WSDL version 420,2013-03-09 20:43:00,
2013-03-09 15:48:00,57.4,18.9,30.33,East,84,3.4,8.5,22,0.00,,,0.00,WSDL version 420,2013-03-09 20:48:00,
2013-03-09 15:53:00,57.1,18.6,30.34,East,84,3.3,7.8,22,0.00,,,0.00,WSDL version 420,2013-03-09 20:53:00,
2013-03-09 15:58:00,56.9,18.5,30.34,ENE,70,2.4,7.8,22,0.00,,,0.00,WSDL version 420,2013-03-09 20:58:00,
2013-03-09 16:03:00,56.8,18.3,30.34,East,79,3.6,8.1,22,0.00,,,0.00,WSDL version 420,2013-03-09 21:03:00,
2013-03-09 16:08:00,56.6,18.2,30.34,ENE,65,3.9,8.1,22,0.00,,,0.00,WSDL version 420,2013-03-09 21:08:00,
2013-03-09 16:13:00,56.5,18.1,30.34,NE,51,2.1,7.6,22,0.00,,,0.00,WSDL version 420,2013-03-09 21:13:00,
2013-03-09 16:18:00,56.5,18.1,30.34,ENE,73,2.5,6.3,22,0.00,,,0.00,WSDL version 420,2013-03-09 21:18:00,
2013-03-09 16:23:00,56.3,18.0,30.34,ENE,70,2.9,6.3,22,0.00,,,0.00,WSDL version 420,2013-03-09 21:23:00,
2013-03-09 16:28:00,56.1,17.8,30.34,ENE,65,4.2,6.3,22,0.00,,,0.00,WSDL version 420,2013-03-09 21:28:00,
2013-03-09 16:33:00,55.9,17.7,30.34,NE,48,3.9,6.3,22,0.00,,,0.00,WSDL version 420,2013-03-09 21:33:00,
2013-03-09 16:38:00,55.9,18.8,30.34,NE,53,1.4,6.3,22,0.00,,,0.00,WSDL version 420,2013-03-09 21:38:00,
2013-03-09 16:43:00,55.8,18.5,30.34,ESE,113,1.9,5.6,25,0.00,,,0.00,WSDL version 420,2013-03-09 21:43:00,
2013-03-09 16:48:00,55.6,17.8,30.34,ENE,62,2.8,5.6,22,0.00,,,0.00,WSDL version 420,2013-03-09 21:48:00,
2013-03-09 16:53:00,55.4,18.0,30.34,ENE,60,2.1,5.6,23,0.00,,,0.00,WSDL version 420,2013-03-09 21:53:00,
2013-03-09 16:58:00,55.0,17.9,30.34,ENE,65,3.2,6.0,23,0.00,,,0.00,WSDL version 420,2013-03-09 21:58:00,
2013-03-09 17:03:00,54.7,17.6,30.34,ENE,60,2.3,6.0,23,0.00,,,0.00,WSDL version 420,2013-03-09 22:03:00,
2013-03-09 17:08:00,54.5,17.5,30.34,ENE,70,3.1,6.3,23,0.00,,,0.00,WSDL version 420,2013-03-09 22:08:00,
2013-03-09 17:13:00,54.2,17.2,30.34,NE,53,2.2,7.2,23,0.00,,,0.00,WSDL version 420,2013-03-09 22:13:00,
2013-03-09 17:18:00,53.9,17.0,30.34,ENE,60,2.6,7.2,23,0.00,,,0.00,WSDL version 420,2013-03-09 22:18:00,
2013-03-09 17:23:00,53.5,17.9,30.34,NNE,23,0.6,3.8,26,0.00,,,0.00,WSDL version 420,2013-03-09 22:23:00,
2013-03-09 17:28:00,53.1,19.1,30.34,NE,43,1.3,3.6,26,0.00,,,0.00,WSDL version 420,2013-03-09 22:28:00,
2013-03-09 17:33:00,53.0,19.0,30.34,ENE,58,2.1,3.6,26,0.00,,,0.00,WSDL version 420,2013-03-09 22:33:00,
2013-03-09 17:38:00,52.8,17.2,30.34,East,93,2.1,4.3,26,0.00,,,0.00,WSDL version 420,2013-03-09 22:38:00,
2013-03-09 17:43:00,52.5,18.6,30.34,NE,39,1.7,4.3,26,0.00,,,0.00,WSDL version 420,2013-03-09 22:43:00,
2013-03-09 17:48:00,52.2,18.4,30.34,East,88,0.3,3.6,26,0.00,,,0.00,WSDL version 420,2013-03-09 22:48:00,
2013-03-09 17:53:00,51.7,17.9,30.34,NNE,25,0.0,2.5,26,0.00,,,0.00,WSDL version 420,2013-03-09 22:53:00,
2013-03-09 17:58:00,51.3,17.6,30.35,East,101,2.9,4.0,26,0.00,,,0.00,WSDL version 420,2013-03-09 22:58:00,
2013-03-09 18:03:00,51.2,17.5,30.35,South,183,0.3,4.0,26,0.00,,,0.00,WSDL version 420,2013-03-09 23:03:00,
2013-03-09 18:08:00,50.6,17.3,30.35,ENE,73,0.8,3.1,26,0.00,,,0.00,WSDL version 420,2013-03-09 23:08:00,
2013-03-09 18:13:00,50.3,17.1,30.35,ENE,70,0.0,2.9,27,0.00,,,0.00,WSDL version 420,2013-03-09 23:13:00,
2013-03-09 18:18:00,50.0,17.1,30.35,ENE,76,1.9,3.1,26,0.00,,,0.00,WSDL version 420,2013-03-09 23:18:00,
2013-03-09 18:23:00,49.6,17.4,30.35,NE,38,0.0,3.1,28,0.00,,,0.00,WSDL version 420,2013-03-09 23:23:00,
2013-03-09 18:28:00,49.0,17.0,30.35,NNE,32,0.0,2.7,28,0.00,,,0.00,WSDL version 420,2013-03-09 23:28:00,
2013-03-09 18:33:00,48.6,16.8,30.35,WSW,248,0.0,2.7,28,0.00,,,0.00,WSDL version 420,2013-03-09 23:33:00,
2013-03-09 18:38:00,48.0,17.0,30.35,North,5,0.0,1.1,29,0.00,,,0.00,WSDL version 420,2013-03-09 23:38:00,
2013-03-09 18:43:00,47.5,16.8,30.35,NNW,338,0.0,0.0,29,0.00,,,0.00,WSDL version 420,2013-03-09 23:43:00,
2013-03-09 18:48:00,47.0,16.4,30.35,West,270,0.0,0.0,29,0.00,,,0.00,WSDL version 420,2013-03-09 23:48:00,
2013-03-09 18:53:00,46.5,16.8,30.35,West,276,0.0,0.0,30,0.00,,,0.00,WSDL version 420,2013-03-09 23:53:00,
2013-03-09 18:58:00,46.1,18.4,30.36,West,275,0.3,1.6,34,0.00,,,0.00,WSDL version 420,2013-03-09 23:58:00,
2013-03-09 19:03:00,45.8,17.9,30.36,NNW,343,0.3,1.6,31,0.00,,,0.00,WSDL version 420,2013-03-10 00:03:00,
2013-03-09 19:08:00,46.3,17.8,30.39,SW,214,0.2,1.6,33,0.00,,,0.00,WSDL version 420,2013-03-10 00:08:00,
2013-03-09 19:13:00,45.8,17.9,30.39,NE,53,0.0,2.0,32,0.00,,,0.00,WSDL version 420,2013-03-10 00:13:00,
2013-03-09 19:18:00,45.5,18.7,30.39,WNW,295,0.2,2.0,34,0.00,,,0.00,WSDL version 420,2013-03-10 00:18:00,
2013-03-09 19:23:00,45.0,17.8,30.36,SSE,149,0.0,2.0,33,0.00,,,0.00,WSDL version 420,2013-03-10 00:23:00,
2013-03-09 19:28:00,44.5,18.9,30.36,NNE,20,0.4,1.6,36,0.00,,,0.00,WSDL version 420,2013-03-10 00:28:00,
2013-03-09 19:33:00,44.1,19.4,30.36,SSW,200,0.0,2.0,36,0.00,,,0.00,WSDL version 420,2013-03-10 00:33:00,
2013-03-09 19:38:00,44.1,19.1,30.36,North,355,0.8,2.2,38,0.00,,,0.00,WSDL version 420,2013-03-10 00:38:00,
2013-03-09 19:43:00,43.9,19.9,30.36,ESE,121,0.5,2.5,38,0.00,,,0.00,WSDL version 420,2013-03-10 00:43:00,
2013-03-09 19:48:00,43.9,20.1,30.36,NNW,345,0.0,2.5,38,0.00,,,0.00,WSDL version 420,2013-03-10 00:48:00,
2013-03-09 19:53:00,44.1,19.6,30.36,ENE,76,0.0,1.1,36,0.00,,,0.00,WSDL version 420,2013-03-10 00:53:00,
2013-03-09 19:58:00,44.4,19.6,30.35,West,276,0.8,2.9,38,0.00,,,0.00,WSDL version 420,2013-03-10 00:58:00,
2013-03-09 20:03:00,44.3,20.3,30.35,SE,141,0.6,2.9,38,0.00,,,0.00,WSDL version 420,2013-03-10 01:03:00,
2013-03-09 20:08:00,44.4,20.2,30.35,East,90,2.1,3.6,37,0.00,,,0.00,WSDL version 420,2013-03-10 01:08:00,
2013-03-09 20:13:00,45.0,19.8,30.35,East,96,2.6,4.3,36,0.00,,,0.00,WSDL version 420,2013-03-10 01:13:00,
2013-03-09 20:18:00,45.5,19.3,30.34,East,101,2.6,4.3,35,0.00,,,0.00,WSDL version 420,2013-03-10 01:18:00,
2013-03-09 20:23:00,45.4,20.8,30.34,NNW,340,0.0,3.6,37,0.00,,,0.00,WSDL version 420,2013-03-10 01:23:00,
2013-03-09 20:28:00,45.0,20.3,30.34,NE,56,0.2,2.0,37,0.00,,,0.00,WSDL version 420,2013-03-10 01:28:00,
2013-03-09 20:33:00,45.2,20.5,30.34,ENE,73,2.5,3.1,37,0.00,,,0.00,WSDL version 420,2013-03-10 01:33:00,
2013-03-09 20:38:00,45.6,20.1,30.37,SE,127,2.1,3.1,37,0.00,,,0.00,WSDL version 420,2013-03-10 01:38:00,
2013-03-09 20:43:00,45.4,20.6,30.37,ENE,73,1.4,2.9,37,0.00,,,0.00,WSDL version 420,2013-03-10 01:43:00,
2013-03-09 20:48:00,45.2,21.0,30.37,North,354,1.7,3.6,38,0.00,,,0.00,WSDL version 420,2013-03-10 01:48:00,
2013-03-09 20:53:00,44.9,21.1,30.37,East,80,0.2,3.6,38,0.00,,,0.00,WSDL version 420,2013-03-10 01:53:00,
2013-03-09 20:58:00,44.9,21.0,30.37,North,6,0.9,2.2,39,0.00,,,0.00,WSDL version 420,2013-03-10 01:58:00,
2013-03-09 21:03:00,44.6,20.6,30.37,ESE,106,1.1,2.5,38,0.00,,,0.00,WSDL version 420,2013-03-10 02:03:00,
2013-03-09 21:08:00,44.7,20.7,30.36,East,101,0.6,2.5,38,0.00,,,0.00,WSDL version 420,2013-03-10 02:08:00,
2013-03-09 21:13:00,44.7,20.7,30.36,NNW,332,0.0,1.6,38,0.00,,,0.00,WSDL version 420,2013-03-10 02:13:00,
2013-03-09 21:18:00,44.6,20.6,30.36,ENE,68,0.0,0.9,38,0.00,,,0.00,WSDL version 420,2013-03-10 02:18:00,
2013-03-09 21:23:00,44.5,20.7,30.36,South,180,0.0,0.9,39,0.00,,,0.00,WSDL version 420,2013-03-10 02:23:00,
2013-03-09 21:28:00,44.6,21.0,30.36,West,280,1.4,2.5,39,0.00,,,0.00,WSDL version 420,2013-03-10 02:28:00,
2013-03-09 21:38:00,44.3,21.0,30.35,NW,315,0.0,2.2,39,0.00,,,0.00,WSDL version 420,2013-03-10 02:38:00,
2013-03-09 21:43:00,44.2,21.0,30.35,West,270,0.0,2.2,40,0.00,,,0.00,WSDL version 420,2013-03-10 02:43:00,
2013-03-09 21:48:00,44.2,21.2,30.35,WNW,293,0.0,1.3,40,0.00,,,0.00,WSDL version 420,2013-03-10 02:48:00,
2013-03-09 21:53:00,44.2,21.2,30.35,West,278,0.3,1.3,41,0.00,,,0.00,WSDL version 420,2013-03-10 02:53:00,
2013-03-09 21:58:00,44.1,21.4,30.35,NNW,330,0.0,1.3,40,0.00,,,0.00,WSDL version 420,2013-03-10 02:58:00,
2013-03-09 22:03:00,44.2,21.4,30.35,WSW,254,0.0,0.0,39,0.00,,,0.00,WSDL version 420,2013-03-10 03:03:00,
2013-03-09 22:08:00,44.3,21.4,30.35,WSW,248,0.0,1.6,40,0.00,,,0.00,WSDL version 420,2013-03-10 03:08:00,
2013-03-09 22:13:00,44.1,20.9,30.35,SE,138,0.0,1.6,39,0.00,,,0.00,WSDL version 420,2013-03-10 03:13:00,
2013-03-09 22:18:00,44.1,21.1,30.35,West,270,0.0,0.0,40,0.00,,,0.00,WSDL version 420,2013-03-10 03:18:00,
2013-03-09 22:23:00,43.9,21.2,30.35,WSW,248,0.4,1.1,40,0.00,,,0.00,WSDL version 420,2013-03-10 03:23:00,
2013-03-09 22:33:00,43.9,21.2,30.35,SW,233,0.3,2.0,40,0.00,,,0.00,WSDL version 420,2013-03-10 03:33:00,
2013-03-09 22:38:00,43.8,21.6,30.38,West,270,0.0,2.0,41,0.00,,,0.00,WSDL version 420,2013-03-10 03:38:00,
2013-03-09 22:43:00,43.7,21.0,30.38,WSW,255,0.0,2.5,40,0.00,,,0.00,WSDL version 420,2013-03-10 03:43:00,
2013-03-09 22:53:00,43.5,21.4,30.35,NW,308,0.0,2.9,41,0.00,,,0.00,WSDL version 420,2013-03-10 03:53:00,
2013-03-09 22:58:00,43.6,21.8,30.35,SW,225,0.0,0.0,42,0.00,,,0.00,WSDL version 420,2013-03-10 03:58:00,
2013-03-09 23:03:00,43.5,21.5,30.35,WNW,293,0.0,0.0,41,0.00,,,0.00,WSDL version 420,2013-03-10 04:03:00,
2013-03-09 23:08:00,43.4,21.3,30.35,South,190,0.1,1.1,42,0.00,,,0.00,WSDL version 420,2013-03-10 04:08:00,
2013-03-09 23:13:00,43.3,21.8,30.34,NW,315,0.0,1.1,42,0.00,,,0.00,WSDL version 420,2013-03-10 04:13:00,
2013-03-09 23:18:00,43.3,21.6,30.34,West,265,0.0,0.0,42,0.00,,,0.00,WSDL version 420,2013-03-10 04:18:00,
2013-03-09 23:23:00,43.0,21.5,30.34,NW,315,0.0,0.0,42,0.00,,,0.00,WSDL version 420,2013-03-10 04:23:00,
2013-03-09 23:28:00,43.0,21.5,30.34,SSE,166,0.0,0.0,42,0.00,,,0.00,WSDL version 420,2013-03-10 04:28:00,
2013-03-09 23:33:00,43.0,21.7,30.34,NE,34,0.0,0.0,42,0.00,,,0.00,WSDL version 420,2013-03-10 04:33:00,
2013-03-09 23:38:00,43.4,21.9,30.34,WSW,258,0.0,1.3,43,0.00,,,0.00,WSDL version 420,2013-03-10 04:38:00,
2013-03-09 23:48:00,42.9,21.4,30.34,WNW,301,0.0,0.9,42,0.00,,,0.00,WSDL version 420,2013-03-10 04:48:00,
2013-03-09 23:53:00,42.7,21.6,30.34,SSW,203,0.0,0.0,42,0.00,,,0.00,WSDL version 420,2013-03-10 04:53:00,
2013-03-09 23:58:00,42.7,21.0,30.34,SE,138,0.0,0.0,41,0.00,,,0.00,WSDL version 420,2013-03-10 04:58:00,